createdAt,value
2022-12-14T00:00:02.648Z,-3.61
2022-12-14T00:01:02.666Z,-3.76
2022-12-14T00:02:02.698Z,-3.65
2022-12-14T00:03:02.791Z,-3.68
2022-12-14T00:04:02.572Z,-3.70
2022-12-14T00:05:02.565Z,-3.68
2022-12-14T00:06:02.555Z,-3.39
2022-12-14T00:07:02.531Z,-3.46
2022-12-14T00:08:02.526Z,-3.55
2022-12-14T00:09:02.511Z,-3.46
2022-12-14T00:10:02.506Z,-3.59
2022-12-14T00:11:02.499Z,-3.44
2022-12-14T00:12:02.499Z,-3.58
2022-12-14T00:13:02.468Z,-3.39
2022-12-14T00:14:02.457Z,-3.36
2022-12-14T00:15:02.459Z,-3.49
2022-12-14T00:16:02.526Z,-3.41
2022-12-14T00:17:02.423Z,-3.46
2022-12-14T00:18:02.432Z,-3.62
2022-12-14T00:19:02.413Z,-3.37
2022-12-14T00:20:02.395Z,-3.37
2022-12-14T00:21:02.402Z,-3.40
2022-12-14T00:22:02.606Z,-3.43
2022-12-14T00:23:02.366Z,-3.44
2022-12-14T00:24:02.354Z,-3.40
2022-12-14T00:25:02.345Z,-3.54
2022-12-14T00:26:02.335Z,-3.34
2022-12-14T00:27:02.324Z,-3.37
2022-12-14T00:28:02.409Z,-3.36
2022-12-14T00:29:02.317Z,-3.22
2022-12-14T00:30:02.289Z,-3.25
2022-12-14T00:31:02.312Z,-3.40
2022-12-14T00:32:02.300Z,-3.46
2022-12-14T00:33:02.261Z,-3.22
2022-12-14T00:34:02.298Z,-3.28
2022-12-14T00:35:02.289Z,-3.31
2022-12-14T00:36:02.247Z,-3.33
2022-12-14T00:37:02.219Z,-3.31
2022-12-14T00:38:02.223Z,-3.31
2022-12-14T00:39:02.211Z,-3.26
2022-12-14T00:40:02.193Z,-3.31
2022-12-14T00:41:02.180Z,-3.23
2022-12-14T00:42:02.183Z,-3.26
2022-12-14T00:43:02.160Z,-3.33
2022-12-14T00:44:02.147Z,-3.39
2022-12-14T00:45:02.135Z,-3.33
2022-12-14T00:46:02.181Z,-3.28
2022-12-14T00:47:02.128Z,-3.28
2022-12-14T00:48:02.133Z,-3.19
2022-12-14T00:49:02.112Z,-3.36
2022-12-14T00:50:02.081Z,-3.36
2022-12-14T00:51:02.076Z,-3.43
2022-12-14T00:52:02.072Z,-3.37
2022-12-14T00:53:02.065Z,-3.36
2022-12-14T00:54:02.043Z,-3.39
2022-12-14T00:55:02.033Z,-3.33
2022-12-14T00:56:02.027Z,-3.28
2022-12-14T00:57:02.010Z,-3.36
2022-12-14T00:58:02.011Z,-3.49
2022-12-14T00:59:02.010Z,-3.49
2022-12-14T01:00:01.982Z,-3.34
2022-12-14T01:01:02.073Z,-3.37
2022-12-14T01:02:02.097Z,-3.33
2022-12-14T01:03:01.956Z,-3.39
2022-12-14T01:04:02.031Z,-3.43
2022-12-14T01:05:01.944Z,-3.36
2022-12-14T01:06:01.916Z,-3.46
2022-12-14T01:07:01.901Z,-3.28
2022-12-14T01:08:01.935Z,-3.31
2022-12-14T01:09:01.888Z,-3.34
2022-12-14T01:10:01.873Z,-3.37
2022-12-14T01:11:01.876Z,-3.23
2022-12-14T01:12:01.855Z,-3.33
2022-12-14T01:13:01.840Z,-3.33
2022-12-14T01:14:01.842Z,-3.41
2022-12-14T01:15:01.825Z,-3.31
2022-12-14T01:16:01.860Z,-3.41
2022-12-14T01:17:01.798Z,-3.39
2022-12-14T01:18:01.796Z,-3.33
2022-12-14T01:19:01.778Z,-3.31
2022-12-14T01:20:01.796Z,-3.28
2022-12-14T01:21:01.758Z,-3.31
2022-12-14T01:22:01.756Z,-3.34
2022-12-14T01:23:01.734Z,-3.47
2022-12-14T01:24:01.741Z,-3.49
2022-12-14T01:25:01.713Z,-3.55
2022-12-14T01:26:01.709Z,-3.74
2022-12-14T01:27:01.694Z,-3.64
2022-12-14T01:28:01.680Z,-3.49
2022-12-14T01:29:01.681Z,-3.57
2022-12-14T01:30:01.657Z,-3.62
2022-12-14T01:31:01.937Z,-3.70
2022-12-14T01:32:01.645Z,-3.65
2022-12-14T01:33:01.632Z,-3.65
2022-12-14T01:34:01.635Z,-3.70
2022-12-14T01:35:01.617Z,-3.72
2022-12-14T01:36:01.643Z,-3.68
2022-12-14T01:37:01.589Z,-3.72
2022-12-14T01:38:01.581Z,-3.74
2022-12-14T01:39:01.567Z,-3.62
2022-12-14T01:40:01.560Z,-3.62
2022-12-14T01:41:01.557Z,-3.58
2022-12-14T01:42:01.549Z,-3.68
2022-12-14T01:43:01.527Z,-3.61
2022-12-14T01:44:01.529Z,-3.72
2022-12-14T01:45:01.504Z,-3.68
2022-12-14T01:46:01.495Z,-3.58
2022-12-14T01:47:01.489Z,-3.54
2022-12-14T01:48:01.470Z,-3.52
2022-12-14T01:49:01.466Z,-3.51
2022-12-14T01:50:01.462Z,-3.47
2022-12-14T01:51:01.445Z,-3.43
2022-12-14T01:52:01.456Z,-3.30
2022-12-14T01:53:01.432Z,-3.43
2022-12-14T01:54:01.410Z,-3.44
2022-12-14T01:55:01.407Z,-3.46
2022-12-14T01:56:01.389Z,-3.33
2022-12-14T01:57:01.390Z,-3.41
2022-12-14T01:58:01.481Z,-3.39
2022-12-14T01:59:01.362Z,-3.43
2022-12-14T02:00:06.901Z,-3.39
2022-12-14T02:01:02.343Z,-3.39
2022-12-14T02:02:01.425Z,-3.44
2022-12-14T02:03:01.423Z,-3.43
2022-12-14T02:04:01.411Z,-3.40
2022-12-14T02:05:01.297Z,-3.49
2022-12-14T02:06:01.292Z,-3.51
2022-12-14T02:07:01.614Z,-3.51
2022-12-14T02:08:01.290Z,-3.41
2022-12-14T02:09:01.259Z,-3.52
2022-12-14T02:10:01.250Z,-3.43
2022-12-14T02:11:01.233Z,-3.41
2022-12-14T02:12:01.225Z,-3.43
2022-12-14T02:13:01.227Z,-3.49
2022-12-14T02:14:01.209Z,-3.39
2022-12-14T02:15:01.199Z,-3.51
2022-12-14T02:16:01.305Z,-3.33
2022-12-14T02:17:01.180Z,-3.37
2022-12-14T02:18:01.163Z,-3.37
2022-12-14T02:19:01.151Z,-3.36
2022-12-14T02:20:01.149Z,-3.36
2022-12-14T02:21:01.142Z,-3.41
2022-12-14T02:22:01.133Z,-3.40
2022-12-14T02:23:01.119Z,-3.34
2022-12-14T02:24:01.127Z,-3.40
2022-12-14T02:25:01.087Z,-3.36
2022-12-14T02:26:01.077Z,-3.40
2022-12-14T02:27:01.079Z,-3.46
2022-12-14T02:28:01.060Z,-3.26
2022-12-14T02:29:01.049Z,-3.46
2022-12-14T02:30:01.034Z,-3.31
2022-12-14T02:31:01.086Z,-3.39
2022-12-14T02:32:01.019Z,-3.46
2022-12-14T02:33:01.024Z,-3.30
2022-12-14T02:34:00.996Z,-3.41
2022-12-14T02:35:00.999Z,-3.37
2022-12-14T02:36:00.985Z,-3.33
2022-12-14T02:37:00.960Z,-3.22
2022-12-14T02:38:00.967Z,-3.34
2022-12-14T02:39:00.939Z,-3.36
2022-12-14T02:40:00.967Z,-3.23
2022-12-14T02:41:00.920Z,-3.37
2022-12-14T02:42:00.908Z,-3.31
2022-12-14T02:43:00.902Z,-3.34
2022-12-14T02:44:00.888Z,-3.23
2022-12-14T02:45:00.892Z,-3.31
2022-12-14T02:46:00.868Z,-3.22
2022-12-14T02:47:00.944Z,-3.34
2022-12-14T02:48:00.847Z,-3.22
2022-12-14T02:49:00.855Z,-3.16
2022-12-14T02:50:00.827Z,-3.19
2022-12-14T02:51:00.827Z,-3.22
2022-12-14T02:52:00.801Z,-3.13
2022-12-14T02:53:00.795Z,-3.21
2022-12-14T02:54:00.785Z,-3.15
2022-12-14T02:55:00.786Z,-3.25
2022-12-14T02:56:00.788Z,-3.25
2022-12-14T02:57:00.766Z,-3.19
2022-12-14T02:58:00.740Z,-3.12
2022-12-14T02:59:00.746Z,-3.13
2022-12-14T03:00:00.720Z,-3.15
2022-12-14T03:01:00.808Z,-3.22
2022-12-14T03:02:00.857Z,-3.15
2022-12-14T03:03:00.726Z,-3.10
2022-12-14T03:04:00.677Z,-3.19
2022-12-14T03:05:00.671Z,-3.18
2022-12-14T03:06:00.660Z,-3.19
2022-12-14T03:07:00.652Z,-3.19
2022-12-14T03:08:00.653Z,-3.04
2022-12-14T03:09:00.628Z,-3.08
2022-12-14T03:10:00.623Z,-3.07
2022-12-14T03:11:00.613Z,-3.04
2022-12-14T03:12:00.625Z,-3.02
2022-12-14T03:13:00.593Z,-3.00
2022-12-14T03:14:00.597Z,-3.08
2022-12-14T03:15:00.570Z,-3.02
2022-12-14T03:16:00.612Z,-3.15
2022-12-14T03:17:00.544Z,-3.10
2022-12-14T03:18:00.547Z,-2.98
2022-12-14T03:19:00.526Z,-3.08
2022-12-14T03:20:00.521Z,-3.04
2022-12-14T03:21:00.499Z,-3.10
2022-12-14T03:22:00.494Z,-3.21
2022-12-14T03:23:00.491Z,-3.18
2022-12-14T03:24:00.471Z,-3.34
2022-12-14T03:25:00.477Z,-3.23
2022-12-14T03:26:00.450Z,-3.16
2022-12-14T03:27:00.650Z,-3.05
2022-12-14T03:28:00.459Z,-3.08
2022-12-14T03:29:00.423Z,-3.04
2022-12-14T03:30:00.405Z,-2.95
2022-12-14T03:31:01.072Z,-2.90
2022-12-14T03:32:00.452Z,-3.07
2022-12-14T03:33:00.378Z,-3.00
2022-12-14T03:34:00.366Z,-3.01
2022-12-14T03:35:00.360Z,-3.12
2022-12-14T03:36:00.357Z,-3.01
2022-12-14T03:37:00.344Z,-2.79
2022-12-14T03:38:00.328Z,-2.79
2022-12-14T03:39:00.314Z,-2.83
2022-12-14T03:40:00.308Z,-2.89
2022-12-14T03:41:00.297Z,-2.86
2022-12-14T03:42:00.298Z,-2.94
2022-12-14T03:43:00.276Z,-2.86
2022-12-14T03:44:00.294Z,-2.82
2022-12-14T03:45:00.251Z,-2.95
2022-12-14T03:46:00.278Z,-3.04
2022-12-14T03:47:00.239Z,-3.02
2022-12-14T03:48:00.223Z,-3.01
2022-12-14T03:49:00.213Z,-2.98
2022-12-14T03:50:00.201Z,-2.76
2022-12-14T03:51:00.188Z,-3.01
2022-12-14T03:52:00.188Z,-2.93
2022-12-14T03:53:00.169Z,-2.97
2022-12-14T03:54:00.160Z,-2.93
2022-12-14T03:55:00.156Z,-2.66
2022-12-14T03:56:00.147Z,-2.79
2022-12-14T03:57:00.125Z,-2.62
2022-12-14T03:58:00.119Z,-2.72
2022-12-14T03:59:00.102Z,-2.69
2022-12-14T04:00:00.175Z,-2.58
2022-12-14T04:01:00.178Z,-2.71
2022-12-14T04:02:00.233Z,-2.79
2022-12-14T04:03:00.200Z,-2.72
2022-12-14T04:04:00.067Z,-2.74
2022-12-14T04:05:00.041Z,-2.74
2022-12-14T04:06:00.036Z,-2.74
2022-12-14T04:07:00.041Z,-2.68
2022-12-14T04:08:00.019Z,-2.69
2022-12-14T04:09:00.001Z,-2.62
2022-12-14T04:09:59.995Z,-2.64
2022-12-14T04:10:59.981Z,-2.71
2022-12-14T04:11:59.964Z,-2.62
2022-12-14T04:12:59.976Z,-2.66
2022-12-14T04:13:59.949Z,-2.47
2022-12-14T04:14:59.935Z,-2.65
2022-12-14T04:15:59.963Z,-2.66
2022-12-14T04:16:59.920Z,-2.44
2022-12-14T04:17:59.908Z,-2.64
2022-12-14T04:19:00.689Z,-2.64
2022-12-14T04:19:59.907Z,-2.61
2022-12-14T04:20:59.876Z,-2.43
2022-12-14T04:21:59.862Z,-2.69
2022-12-14T04:22:59.867Z,-2.72
2022-12-14T04:23:59.841Z,-2.61
2022-12-14T04:24:59.834Z,-2.66
2022-12-14T04:25:59.820Z,-2.82
2022-12-14T04:26:59.920Z,-2.77
2022-12-14T04:27:59.802Z,-2.89
2022-12-14T04:28:59.788Z,-2.83
2022-12-14T04:29:59.778Z,-2.93
2022-12-14T04:30:59.767Z,-2.98
2022-12-14T04:32:00.015Z,-2.77
2022-12-14T04:32:59.797Z,-2.65
2022-12-14T04:33:59.745Z,-2.79
2022-12-14T04:34:59.723Z,-2.77
2022-12-14T04:35:59.715Z,-2.77
2022-12-14T04:36:59.935Z,-2.68
2022-12-14T04:37:59.693Z,-2.71
2022-12-14T04:38:59.690Z,-2.46
2022-12-14T04:39:59.676Z,-2.50
2022-12-14T04:40:59.662Z,-2.53
2022-12-14T04:41:59.658Z,-2.40
2022-12-14T04:42:59.661Z,-2.41
2022-12-14T04:43:59.629Z,-2.40
2022-12-14T04:44:59.625Z,-2.44
2022-12-14T04:45:59.732Z,-2.48
2022-12-14T04:46:59.603Z,-2.25
2022-12-14T04:47:59.648Z,-2.41
2022-12-14T04:48:59.581Z,-2.43
2022-12-14T04:49:59.572Z,-2.61
2022-12-14T04:50:59.557Z,-2.66
2022-12-14T04:52:05.053Z,-2.71
2022-12-14T04:53:00.545Z,-2.74
2022-12-14T04:53:59.540Z,-2.86
2022-12-14T04:54:59.519Z,-2.83
2022-12-14T04:55:59.508Z,-2.94
2022-12-14T04:56:59.494Z,-2.86
2022-12-14T04:57:59.484Z,-3.12
2022-12-14T04:58:59.470Z,-2.98
2022-12-14T04:59:59.480Z,-2.93
2022-12-14T05:00:59.479Z,-2.95
2022-12-14T05:01:59.625Z,-2.90
2022-12-14T05:02:59.513Z,-3.13
2022-12-14T05:03:59.448Z,-3.16
2022-12-14T05:04:59.409Z,-3.22
2022-12-14T05:05:59.410Z,-3.16
2022-12-14T05:06:59.392Z,-3.04
2022-12-14T05:07:59.382Z,-2.98
2022-12-14T05:08:59.385Z,-2.97
2022-12-14T05:09:59.357Z,-3.04
2022-12-14T05:11:15.218Z,-3.01
2022-12-14T05:12:00.475Z,-3.08
2022-12-14T05:12:59.328Z,-2.97
2022-12-14T05:13:59.320Z,-2.97
2022-12-14T05:14:59.322Z,-3.01
2022-12-14T05:15:59.295Z,-2.87
2022-12-14T05:17:03.400Z,-2.80
2022-12-14T05:18:00.274Z,-2.72
2022-12-14T05:18:59.267Z,-2.64
2022-12-14T05:19:59.283Z,-2.65
2022-12-14T05:20:59.256Z,-2.86
2022-12-14T05:21:59.233Z,-2.74
2022-12-14T05:22:59.228Z,-2.76
2022-12-14T05:23:59.211Z,-2.87
2022-12-14T05:24:59.203Z,-2.94
2022-12-14T05:25:59.193Z,-2.93
2022-12-14T05:26:59.194Z,-2.77
2022-12-14T05:27:59.174Z,-2.80
2022-12-14T05:28:59.161Z,-2.48
2022-12-14T05:29:59.151Z,-2.59
2022-12-14T05:30:59.218Z,-2.43
2022-12-14T05:31:59.129Z,-2.38
2022-12-14T05:32:59.115Z,-2.43
2022-12-14T05:33:59.109Z,-2.48
2022-12-14T05:34:59.112Z,-2.21
2022-12-14T05:35:59.111Z,-2.35
2022-12-14T05:36:59.076Z,-2.18
2022-12-14T05:37:59.073Z,-2.18
2022-12-14T05:38:59.052Z,-2.16
2022-12-14T05:39:59.041Z,-2.13
2022-12-14T05:40:59.045Z,-2.03
2022-12-14T05:41:59.026Z,-1.96
2022-12-14T05:42:59.019Z,-2.07
2022-12-14T05:43:59.006Z,-2.04
2022-12-14T05:44:58.991Z,-1.85
2022-12-14T05:45:59.049Z,-2.01
2022-12-14T05:46:58.966Z,-1.85
2022-12-14T05:47:58.960Z,-1.90
2022-12-14T05:48:58.945Z,-1.95
2022-12-14T05:49:58.943Z,-1.85
2022-12-14T05:50:58.938Z,-1.93
2022-12-14T05:51:58.942Z,-1.83
2022-12-14T05:52:58.907Z,-1.77
2022-12-14T05:53:58.896Z,-1.71
2022-12-14T05:55:03.814Z,-1.78
2022-12-14T05:55:59.874Z,-1.67
2022-12-14T05:56:58.861Z,-1.65
2022-12-14T05:57:58.851Z,-1.62
2022-12-14T05:58:58.855Z,-1.59
2022-12-14T05:59:58.836Z,-1.56
2022-12-14T06:00:58.819Z,-1.61
2022-12-14T06:01:58.856Z,-1.61
2022-12-14T06:02:58.845Z,-1.65
2022-12-14T06:03:58.827Z,-1.88
2022-12-14T06:04:58.779Z,-1.64
2022-12-14T06:05:58.771Z,-1.54
2022-12-14T06:06:58.758Z,-1.54
2022-12-14T06:07:58.767Z,-1.64
2022-12-14T06:08:58.740Z,-1.61
2022-12-14T06:09:58.722Z,-1.64
2022-12-14T06:10:58.715Z,-1.50
2022-12-14T06:11:58.704Z,-1.43
2022-12-14T06:12:58.688Z,-1.36
2022-12-14T06:13:58.699Z,-1.43
2022-12-14T06:14:58.675Z,-1.28
2022-12-14T06:15:58.726Z,-1.38
2022-12-14T06:16:58.656Z,-1.32
2022-12-14T06:17:58.640Z,-1.36
2022-12-14T06:18:58.627Z,-1.51
2022-12-14T06:19:58.631Z,-1.39
2022-12-14T06:20:58.612Z,-1.23
2022-12-14T06:21:58.601Z,-1.39
2022-12-14T06:22:58.586Z,-1.26
2022-12-14T06:23:58.689Z,-1.15
2022-12-14T06:24:58.563Z,-1.08
2022-12-14T06:25:58.556Z,-1.14
2022-12-14T06:26:58.543Z,-1.03
2022-12-14T06:27:58.534Z,-1.07
2022-12-14T06:28:58.523Z,-1.03
2022-12-14T06:29:58.522Z,-1.15
2022-12-14T06:30:58.542Z,-1.18
2022-12-14T06:31:58.492Z,-1.15
2022-12-14T06:32:58.477Z,-1.07
2022-12-14T06:33:58.465Z,-1.25
2022-12-14T06:34:58.469Z,-1.13
2022-12-14T06:35:58.449Z,-1.05
2022-12-14T06:36:58.436Z,-1.10
2022-12-14T06:37:58.430Z,-0.90
2022-12-14T06:38:58.414Z,-0.90
2022-12-14T06:39:58.431Z,-0.70
2022-12-14T06:40:58.410Z,-0.71
2022-12-14T06:41:58.379Z,-0.81
2022-12-14T06:42:58.375Z,-0.74
2022-12-14T06:43:58.369Z,-0.80
2022-12-14T06:44:58.349Z,-0.74
2022-12-14T06:45:58.368Z,-0.68
2022-12-14T06:46:58.408Z,-0.67
2022-12-14T06:47:58.324Z,-0.67
2022-12-14T06:48:58.307Z,-0.65
2022-12-14T06:49:58.294Z,-0.70
2022-12-14T06:50:58.291Z,-0.63
2022-12-14T06:51:58.285Z,-0.56
2022-12-14T06:52:58.262Z,-0.58
2022-12-14T06:53:58.253Z,-0.62
2022-12-14T06:54:58.244Z,-0.68
2022-12-14T06:55:58.251Z,-0.70
2022-12-14T06:56:58.245Z,-0.59
2022-12-14T06:57:58.214Z,-0.47
2022-12-14T06:58:58.207Z,-0.58
2022-12-14T06:59:58.191Z,-0.56
2022-12-14T07:00:58.179Z,-0.71
2022-12-14T07:01:58.320Z,-0.76
2022-12-14T07:02:58.366Z,-0.85
2022-12-14T07:03:58.146Z,-0.77
2022-12-14T07:04:58.138Z,-0.83
2022-12-14T07:05:58.124Z,-0.74
2022-12-14T07:06:58.121Z,-0.68
2022-12-14T07:07:58.104Z,-0.73
2022-12-14T07:08:58.113Z,-0.53
2022-12-14T07:09:58.081Z,-0.55
2022-12-14T07:11:02.259Z,-0.47
2022-12-14T07:11:58.102Z,-0.35
2022-12-14T07:12:58.055Z,-0.27
2022-12-14T07:13:58.044Z,-0.21
2022-12-14T07:14:58.062Z,-0.14
2022-12-14T07:15:58.073Z,-0.24
2022-12-14T07:16:58.013Z,-0.08
2022-12-14T07:17:58.006Z,-0.16
2022-12-14T07:18:57.988Z,-0.06
2022-12-14T07:19:57.986Z,-0.17
2022-12-14T07:20:57.967Z,-0.32
2022-12-14T07:21:57.959Z,-0.34
2022-12-14T07:22:57.950Z,-0.34
2022-12-14T07:23:57.938Z,-0.27
2022-12-14T07:24:57.928Z,-0.26
2022-12-14T07:25:57.927Z,-0.26
2022-12-14T07:26:57.906Z,-0.17
2022-12-14T07:27:57.985Z,-0.19
2022-12-14T07:28:57.896Z,-0.05
2022-12-14T07:29:57.874Z,-0.17
2022-12-14T07:30:57.894Z,-0.20
2022-12-14T07:31:57.852Z,-0.08
2022-12-14T07:32:57.842Z,0.07
2022-12-14T07:33:57.842Z,0.13
2022-12-14T07:34:57.839Z,0.12
2022-12-14T07:35:57.812Z,0.25
2022-12-14T07:36:57.849Z,0.17
2022-12-14T07:37:57.786Z,0.30
2022-12-14T07:38:57.782Z,0.45
2022-12-14T07:39:57.765Z,0.56
2022-12-14T07:40:57.774Z,0.64
2022-12-14T07:41:57.745Z,0.71
2022-12-14T07:42:57.733Z,0.67
2022-12-14T07:43:57.750Z,0.68
2022-12-14T07:44:57.713Z,0.71
2022-12-14T07:45:57.736Z,0.93
2022-12-14T07:46:57.722Z,0.89
2022-12-14T07:47:57.681Z,0.82
2022-12-14T07:48:57.796Z,0.84
2022-12-14T07:49:57.665Z,0.72
2022-12-14T07:50:57.656Z,0.62
2022-12-14T07:51:57.641Z,0.62
2022-12-14T07:52:57.643Z,0.70
2022-12-14T07:53:57.623Z,0.56
2022-12-14T07:54:57.618Z,0.68
2022-12-14T07:55:57.606Z,0.57
2022-12-14T07:56:57.601Z,0.52
2022-12-14T07:57:57.578Z,0.57
2022-12-14T07:58:57.565Z,0.64
2022-12-14T07:59:57.835Z,0.74
2022-12-14T08:00:57.543Z,0.64
2022-12-14T08:01:57.660Z,0.78
2022-12-14T08:02:57.523Z,0.71
2022-12-14T08:03:57.516Z,0.84
2022-12-14T08:04:57.647Z,0.98
2022-12-14T08:05:57.493Z,1.14
2022-12-14T08:06:58.492Z,1.16
2022-12-14T08:07:57.487Z,1.11
2022-12-14T08:08:57.469Z,1.31
2022-12-14T08:09:57.446Z,1.39
2022-12-14T08:10:57.438Z,1.42
2022-12-14T08:11:57.441Z,1.24
2022-12-14T08:12:57.418Z,1.39
2022-12-14T08:13:57.407Z,1.20
2022-12-14T08:14:57.414Z,0.84
2022-12-14T08:15:57.518Z,0.88
2022-12-14T08:16:57.374Z,0.99
2022-12-14T08:17:57.363Z,1.00
2022-12-14T08:18:57.351Z,1.06
2022-12-14T08:19:57.353Z,1.04
2022-12-14T08:20:57.353Z,0.98
2022-12-14T08:21:57.334Z,1.00
2022-12-14T08:22:57.309Z,1.11
2022-12-14T08:23:57.309Z,0.90
2022-12-14T08:24:57.285Z,1.06
2022-12-14T08:25:57.287Z,0.95
2022-12-14T08:26:57.273Z,0.93
2022-12-14T08:27:57.258Z,0.93
2022-12-14T08:28:57.241Z,0.98
2022-12-14T08:29:57.231Z,1.00
2022-12-14T08:30:57.365Z,0.99
2022-12-14T08:31:57.445Z,1.07
2022-12-14T08:32:57.198Z,1.16
2022-12-14T08:33:57.192Z,1.20
2022-12-14T08:34:57.179Z,1.24
2022-12-14T08:35:57.169Z,1.20
2022-12-14T08:36:57.161Z,0.96
2022-12-14T08:37:57.171Z,0.96
2022-12-14T08:38:57.140Z,0.99
2022-12-14T08:39:57.125Z,0.99
2022-12-14T08:40:57.125Z,1.21
2022-12-14T08:41:57.116Z,1.28
2022-12-14T08:42:57.088Z,1.21
2022-12-14T08:43:57.085Z,1.18
2022-12-14T08:44:57.075Z,1.29
2022-12-14T08:45:57.059Z,1.06
2022-12-14T08:46:57.113Z,1.31
2022-12-14T08:47:57.065Z,1.24
2022-12-14T08:48:57.048Z,1.18
2022-12-14T08:49:57.017Z,1.16
2022-12-14T08:50:57.002Z,1.17
2022-12-14T08:51:57.000Z,1.31
2022-12-14T08:52:56.989Z,1.14
2022-12-14T08:53:56.974Z,1.34
2022-12-14T08:54:56.973Z,1.34
2022-12-14T08:55:56.948Z,1.49
2022-12-14T08:56:56.936Z,1.67
2022-12-14T08:57:56.960Z,1.60
2022-12-14T08:58:56.911Z,1.67
2022-12-14T09:00:01.781Z,1.75
2022-12-14T09:00:57.932Z,1.68
2022-12-14T09:01:57.077Z,1.64
2022-12-14T09:02:57.014Z,1.68
2022-12-14T09:03:56.881Z,1.82
2022-12-14T09:04:56.856Z,1.82
2022-12-14T09:05:56.839Z,1.92
2022-12-14T09:06:56.844Z,2.00
2022-12-14T09:07:56.823Z,1.89
2022-12-14T09:08:56.808Z,1.89
2022-12-14T09:09:56.802Z,1.81
2022-12-14T09:10:56.789Z,1.88
2022-12-14T09:11:56.772Z,1.95
2022-12-14T09:12:56.778Z,2.02
2022-12-14T09:13:56.755Z,1.95
2022-12-14T09:14:56.741Z,1.81
2022-12-14T09:15:56.785Z,1.60
2022-12-14T09:16:56.719Z,1.68
2022-12-14T09:17:56.713Z,1.72
2022-12-14T09:18:56.802Z,1.64
2022-12-14T09:19:56.693Z,1.64
2022-12-14T09:20:56.672Z,1.75
2022-12-14T09:21:56.771Z,1.57
2022-12-14T09:22:56.653Z,1.56
2022-12-14T09:23:59.637Z,1.71
2022-12-14T09:24:56.645Z,1.70
2022-12-14T09:25:56.617Z,1.64
2022-12-14T09:26:56.606Z,1.60
2022-12-14T09:27:56.605Z,1.65
2022-12-14T09:28:56.627Z,1.74
2022-12-14T09:29:56.594Z,1.67
2022-12-14T09:30:56.577Z,1.79
2022-12-14T09:31:56.617Z,1.64
2022-12-14T09:32:56.544Z,1.63
2022-12-14T09:33:56.594Z,1.71
2022-12-14T09:34:56.518Z,1.63
2022-12-14T09:35:56.522Z,1.75
2022-12-14T09:36:56.500Z,1.95
2022-12-14T09:37:56.486Z,2.00
2022-12-14T09:38:56.586Z,2.04
2022-12-14T09:39:56.477Z,2.15
2022-12-14T09:40:56.456Z,2.23
2022-12-14T09:42:00.792Z,2.27
2022-12-14T09:42:56.434Z,2.45
2022-12-14T09:43:56.427Z,2.50
2022-12-14T09:44:56.431Z,2.59
2022-12-14T09:45:56.495Z,2.61
2022-12-14T09:46:56.606Z,2.69
2022-12-14T09:47:56.386Z,2.58
2022-12-14T09:48:56.377Z,2.41
2022-12-14T09:49:56.373Z,2.58
2022-12-14T09:50:56.400Z,2.62
2022-12-14T09:51:56.348Z,2.63
2022-12-14T09:52:56.331Z,2.68
2022-12-14T09:54:02.086Z,2.76
2022-12-14T09:54:57.318Z,2.83
2022-12-14T09:55:56.297Z,2.81
2022-12-14T09:56:56.292Z,3.01
2022-12-14T09:57:56.296Z,3.01
2022-12-14T09:58:56.272Z,3.02
2022-12-14T09:59:56.257Z,3.28
2022-12-14T10:00:56.290Z,3.31
2022-12-14T10:02:28.941Z,3.37
2022-12-14T10:03:00.446Z,3.31
2022-12-14T10:03:57.344Z,3.15
2022-12-14T10:04:56.205Z,3.12
2022-12-14T10:05:56.194Z,3.23
2022-12-14T10:06:56.195Z,3.25
2022-12-14T10:07:56.173Z,3.31
2022-12-14T10:08:56.159Z,3.20
2022-12-14T10:09:56.158Z,3.34
2022-12-14T10:10:56.153Z,3.28
2022-12-14T10:11:56.128Z,3.26
2022-12-14T10:12:56.115Z,3.30
2022-12-14T10:13:56.117Z,3.57
2022-12-14T10:14:56.092Z,3.70
2022-12-14T10:15:56.093Z,3.80
2022-12-14T10:16:56.167Z,3.75
2022-12-14T10:17:56.064Z,3.81
2022-12-14T10:19:01.032Z,3.96
2022-12-14T10:19:57.044Z,4.04
2022-12-14T10:20:56.038Z,3.99
2022-12-14T10:21:56.037Z,4.11
2022-12-14T10:22:56.011Z,4.25
2022-12-14T10:23:56.000Z,4.20
2022-12-14T10:24:55.987Z,4.44
2022-12-14T10:25:55.978Z,4.39
2022-12-14T10:26:55.982Z,4.53
2022-12-14T10:28:12.167Z,5.12
2022-12-14T10:29:01.148Z,5.56
2022-12-14T10:29:55.938Z,5.42
2022-12-14T10:30:55.923Z,5.59
2022-12-14T10:31:56.025Z,5.20
2022-12-14T10:32:55.903Z,4.94
2022-12-14T10:33:55.896Z,4.74
2022-12-14T10:34:55.879Z,4.51
2022-12-14T10:35:55.869Z,4.51
2022-12-14T10:36:55.858Z,4.49
2022-12-14T10:37:55.881Z,4.53
2022-12-14T10:38:55.839Z,4.59
2022-12-14T10:39:55.831Z,4.79
2022-12-14T10:40:55.817Z,5.12
2022-12-14T10:41:55.805Z,5.26
2022-12-14T10:42:55.849Z,5.22
2022-12-14T10:43:55.795Z,5.35
2022-12-14T10:45:09.717Z,5.51
2022-12-14T10:45:56.852Z,5.42
2022-12-14T10:46:55.876Z,5.33
2022-12-14T10:47:55.743Z,5.30
2022-12-14T10:48:55.732Z,5.24
2022-12-14T10:49:55.735Z,5.23
2022-12-14T10:50:55.708Z,5.40
2022-12-14T10:51:55.727Z,5.65
2022-12-14T10:52:55.686Z,5.73
2022-12-14T10:53:55.692Z,5.59
2022-12-14T10:54:55.667Z,5.69
2022-12-14T10:55:55.655Z,5.66
2022-12-14T10:56:55.714Z,5.52
2022-12-14T10:57:55.638Z,5.45
2022-12-14T10:58:55.618Z,5.55
2022-12-14T11:00:09.057Z,5.73
2022-12-14T11:00:56.689Z,5.78
2022-12-14T11:01:55.723Z,5.65
2022-12-14T11:02:55.828Z,5.55
2022-12-14T11:03:55.622Z,5.45
2022-12-14T11:04:55.563Z,5.33
2022-12-14T11:05:55.556Z,5.47
2022-12-14T11:06:55.539Z,5.33
2022-12-14T11:07:55.530Z,5.56
2022-12-14T11:08:55.516Z,5.83
2022-12-14T11:09:55.532Z,5.95
2022-12-14T11:10:55.495Z,5.87
2022-12-14T11:11:55.505Z,5.74
2022-12-14T11:12:55.478Z,5.93
2022-12-14T11:13:55.465Z,5.96
2022-12-14T11:14:55.457Z,6.16
2022-12-14T11:15:55.521Z,6.38
2022-12-14T11:16:55.568Z,6.40
2022-12-14T11:17:55.572Z,6.46
2022-12-14T11:18:55.408Z,6.50
2022-12-14T11:19:55.396Z,6.45
2022-12-14T11:20:55.393Z,6.57
2022-12-14T11:21:55.395Z,6.54
2022-12-14T11:22:55.369Z,6.51
2022-12-14T11:23:55.358Z,6.42
2022-12-14T11:24:55.339Z,6.38
2022-12-14T11:25:55.340Z,6.38
2022-12-14T11:26:55.323Z,6.43
2022-12-14T11:27:55.309Z,6.38
2022-12-14T11:28:55.298Z,6.25
2022-12-14T11:29:55.292Z,6.30
2022-12-14T11:30:55.379Z,6.33
2022-12-14T11:31:55.276Z,6.16
2022-12-14T11:32:55.275Z,6.13
2022-12-14T11:33:55.249Z,6.03
2022-12-14T11:34:55.237Z,6.32
2022-12-14T11:35:55.221Z,6.46
2022-12-14T11:36:55.230Z,6.36
2022-12-14T11:37:55.239Z,6.16
2022-12-14T11:38:55.209Z,6.11
2022-12-14T11:39:55.179Z,6.20
2022-12-14T11:40:55.174Z,6.11
2022-12-14T11:41:55.162Z,5.81
2022-12-14T11:42:55.196Z,5.80
2022-12-14T11:43:55.142Z,5.80
2022-12-14T11:44:55.191Z,5.75
2022-12-14T11:45:55.214Z,5.66
2022-12-14T11:46:55.225Z,5.62
2022-12-14T11:47:55.139Z,5.73
2022-12-14T11:48:55.103Z,5.75
2022-12-14T11:49:55.073Z,5.87
2022-12-14T11:50:55.083Z,5.70
2022-12-14T11:51:55.124Z,5.93
2022-12-14T11:52:55.088Z,5.81
2022-12-14T11:53:55.082Z,5.67
2022-12-14T11:54:55.021Z,5.67
2022-12-14T11:55:55.019Z,5.63
2022-12-14T11:56:55.010Z,5.84
2022-12-14T11:57:54.992Z,5.87
2022-12-14T11:58:54.969Z,5.85
2022-12-14T11:59:55.037Z,5.84
2022-12-14T12:00:54.969Z,5.90
2022-12-14T12:01:55.014Z,6.08
2022-12-14T12:02:54.973Z,6.01
2022-12-14T12:03:55.015Z,6.05
2022-12-14T12:04:54.911Z,6.11
2022-12-14T12:05:54.896Z,5.98
2022-12-14T12:06:57.891Z,5.93
2022-12-14T12:07:55.877Z,5.88
2022-12-14T12:08:54.866Z,5.81
2022-12-14T12:09:54.857Z,5.77
2022-12-14T12:10:55.101Z,5.84
2022-12-14T12:11:54.837Z,5.75
2022-12-14T12:12:55.178Z,5.90
2022-12-14T12:13:54.862Z,5.81
2022-12-14T12:14:54.800Z,5.93
2022-12-14T12:15:54.881Z,6.19
2022-12-14T12:16:54.777Z,6.36
2022-12-14T12:17:54.783Z,6.30
2022-12-14T12:18:54.769Z,6.35
2022-12-14T12:19:54.748Z,6.08
2022-12-14T12:20:54.738Z,6.06
2022-12-14T12:21:54.725Z,6.05
2022-12-14T12:22:54.718Z,6.27
2022-12-14T12:23:54.704Z,6.30
2022-12-14T12:25:23.786Z,6.16
2022-12-14T12:25:55.681Z,6.35
2022-12-14T12:26:54.671Z,6.25
2022-12-14T12:27:54.655Z,6.25
2022-12-14T12:28:54.647Z,6.32
2022-12-14T12:29:54.638Z,6.35
2022-12-14T12:30:54.679Z,6.11
2022-12-14T12:31:54.620Z,6.19
2022-12-14T12:32:54.605Z,6.21
2022-12-14T12:33:54.591Z,6.25
2022-12-14T12:34:54.581Z,6.05
2022-12-14T12:35:54.572Z,6.21
2022-12-14T12:37:24.888Z,6.08
2022-12-14T12:37:55.551Z,6.02
2022-12-14T12:38:54.539Z,6.01
2022-12-14T12:39:54.536Z,6.06
2022-12-14T12:40:54.520Z,6.08
2022-12-14T12:41:54.506Z,6.17
2022-12-14T12:42:54.496Z,6.21
2022-12-14T12:43:54.638Z,6.24
2022-12-14T12:44:54.472Z,6.11
2022-12-14T12:45:54.546Z,5.80
2022-12-14T12:47:22.848Z,5.84
2022-12-14T12:47:55.591Z,5.85
2022-12-14T12:48:54.429Z,5.85
2022-12-14T12:49:54.425Z,5.92
2022-12-14T12:50:54.410Z,5.99
2022-12-14T12:51:54.504Z,6.03
2022-12-14T12:52:59.262Z,5.87
2022-12-14T12:53:55.372Z,5.81
2022-12-14T12:54:54.362Z,5.90
2022-12-14T12:55:54.355Z,5.93
2022-12-14T12:56:54.344Z,5.92
2022-12-14T12:57:54.350Z,5.85
2022-12-14T12:58:54.323Z,5.67
2022-12-14T12:59:54.311Z,5.75
2022-12-14T13:00:54.300Z,5.73
2022-12-14T13:01:54.364Z,5.83
2022-12-14T13:02:54.488Z,5.74